sensor_id;sensor_type;location;lat;lon;timestamp;pressure;altitude;pressure_sealevel;temperature;humidity
8160;BME280;27404;52.398;9.646;2022-11-15T00:00:25;100401.06;;;3.41;100.00
8160;BME280;27404;52.398;9.646;2022-11-15T00:02:54;100397.28;;;3.36;100.00
8160;BME280;27404;52.398;9.646;2022-11-15T00:05:20;100394.63;;;3.43;100.00
8160;BME280;27404;52.398;9.646;2022-11-15T00:07:46;100399.34;;;3.34;100.00
8160;BME280;27404;52.398;9.646;2022-11-15T00:10:12;100388.53;;;3.34;100.00
8160;BME280;27404;52.398;9.646;2022-11-15T00:12:37;100385.72;;;3.20;100.00
8160;BME280;27404;52.398;9.646;2022-11-15T00:15:03;100398.31;;;3.13;100.00
8160;BME280;27404;52.398;9.646;2022-11-15T00:17:29;100400.38;;;3.11;100.00
8160;BME280;27404;52.398;9.646;2022-11-15T00:19:55;100403.72;;;3.13;100.00
8160;BME280;27404;52.398;9.646;2022-11-15T00:22:20;100393.94;;;3.12;100.00
8160;BME280;27404;52.398;9.646;2022-11-15T00:24:46;100387.63;;;3.26;100.00
8160;BME280;27404;52.398;9.646;2022-11-15T00:27:11;100387.19;;;3.23;100.00
8160;BME280;27404;52.398;9.646;2022-11-15T00:29:36;100382.34;;;3.18;100.00
8160;BME280;27404;52.398;9.646;2022-11-15T00:32:04;100386.00;;;3.32;100.00
8160;BME280;27404;52.398;9.646;2022-11-15T00:34:30;100394.38;;;3.37;100.00
8160;BME280;27404;52.398;9.646;2022-11-15T00:36:55;100400.03;;;3.43;100.00
8160;BME280;27404;52.398;9.646;2022-11-15T00:39:21;100405.06;;;3.46;100.00
8160;BME280;27404;52.398;9.646;2022-11-15T00:41:47;100404.53;;;3.57;100.00
8160;BME280;27404;52.398;9.646;2022-11-15T00:44:12;100395.50;;;3.72;100.00
8160;BME280;27404;52.398;9.646;2022-11-15T00:46:38;100399.59;;;3.89;100.00
8160;BME280;27404;52.398;9.646;2022-11-15T00:49:03;100395.13;;;4.10;100.00
8160;BME280;27404;52.398;9.646;2022-11-15T00:51:28;100383.59;;;4.36;100.00
8160;BME280;27404;52.398;9.646;2022-11-15T00:53:54;100391.22;;;4.61;100.00
8160;BME280;27404;52.398;9.646;2022-11-15T00:56:19;100385.25;;;4.86;100.00
8160;BME280;27404;52.398;9.646;2022-11-15T00:58:45;100386.59;;;5.24;100.00
8160;BME280;27404;52.398;9.646;2022-11-15T01:01:12;100382.44;;;5.48;100.00
8160;BME280;27404;52.398;9.646;2022-11-15T01:03:39;100371.78;;;5.67;100.00
8160;BME280;27404;52.398;9.646;2022-11-15T01:06:05;100379.06;;;5.86;100.00
8160;BME280;27404;52.398;9.646;2022-11-15T01:08:31;100377.81;;;5.96;100.00
8160;BME280;27404;52.398;9.646;2022-11-15T01:11:04;100364.25;;;6.09;100.00
8160;BME280;27404;52.398;9.646;2022-11-15T01:13:32;100364.41;;;6.21;100.00
8160;BME280;27404;52.398;9.646;2022-11-15T01:16:27;100351.84;;;6.33;100.00
8160;BME280;27404;52.398;9.646;2022-11-15T01:18:52;100356.19;;;6.48;100.00
8160;BME280;27404;52.398;9.646;2022-11-15T01:21:19;100354.22;;;6.62;100.00
8160;BME280;27404;52.398;9.646;2022-11-15T01:23:45;100358.75;;;6.75;100.00
8160;BME280;27404;52.398;9.646;2022-11-15T01:26:13;100356.19;;;6.87;100.00
8160;BME280;27404;52.398;9.646;2022-11-15T01:28:40;100351.28;;;7.02;100.00
8160;BME280;27404;52.398;9.646;2022-11-15T01:31:12;100342.41;;;7.14;100.00
8160;BME280;27404;52.398;9.646;2022-11-15T01:33:38;100341.34;;;7.21;100.00
8160;BME280;27404;52.398;9.646;2022-11-15T01:36:08;100334.94;;;7.34;100.00
8160;BME280;27404;52.398;9.646;2022-11-15T01:38:36;100331.28;;;7.47;100.00
8160;BME280;27404;52.398;9.646;2022-11-15T01:41:01;100316.84;;;7.47;100.00
8160;BME280;27404;52.398;9.646;2022-11-15T01:43:29;100325.91;;;7.40;100.00
8160;BME280;27404;52.398;9.646;2022-11-15T01:46:22;100315.03;;;7.40;100.00
8160;BME280;27404;52.398;9.646;2022-11-15T01:48:50;100306.78;;;7.47;100.00
8160;BME280;27404;52.398;9.646;2022-11-15T01:51:17;100308.53;;;7.41;100.00
8160;BME280;27404;52.398;9.646;2022-11-15T01:53:45;100313.97;;;7.41;100.00
8160;BME280;27404;52.398;9.646;2022-11-15T01:56:16;100309.00;;;7.32;100.00
8160;BME280;27404;52.398;9.646;2022-11-15T01:58:44;100303.88;;;7.23;100.00
8160;BME280;27404;52.398;9.646;2022-11-15T02:01:12;100310.03;;;7.12;100.00
8160;BME280;27404;52.398;9.646;2022-11-15T02:03:43;100320.56;;;7.02;100.00
8160;BME280;27404;52.398;9.646;2022-11-15T02:06:11;100315.38;;;6.93;100.00
8160;BME280;27404;52.398;9.646;2022-11-15T02:08:36;100319.75;;;6.94;100.00
8160;BME280;27404;52.398;9.646;2022-11-15T02:11:07;100313.88;;;6.97;100.00
8160;BME280;27404;52.398;9.646;2022-11-15T02:13:32;100313.44;;;7.01;100.00
8160;BME280;27404;52.398;9.646;2022-11-15T02:16:18;100310.69;;;7.07;100.00
8160;BME280;27404;52.398;9.646;2022-11-15T02:18:57;100310.63;;;7.14;100.00
8160;BME280;27404;52.398;9.646;2022-11-15T02:21:44;100304.53;;;7.19;100.00
8160;BME280;27404;52.398;9.646;2022-11-15T02:24:41;100298.66;;;7.22;100.00
8160;BME280;27404;52.398;9.646;2022-11-15T02:32:38;100295.03;;;7.28;100.00
8160;BME280;27404;52.398;9.646;2022-11-15T02:40:57;100284.44;;;7.20;100.00
8160;BME280;27404;52.398;9.646;2022-11-15T02:43:35;100291.34;;;7.22;100.00
8160;BME280;27404;52.398;9.646;2022-11-15T02:46:26;100287.94;;;7.27;100.00
8160;BME280;27404;52.398;9.646;2022-11-15T02:49:14;100286.88;;;7.28;100.00
8160;BME280;27404;52.398;9.646;2022-11-15T02:51:41;100278.91;;;7.33;100.00
8160;BME280;27404;52.398;9.646;2022-11-15T02:54:13;100272.16;;;7.36;100.00
8160;BME280;27404;52.398;9.646;2022-11-15T02:56:39;100257.91;;;7.40;100.00
8160;BME280;27404;52.398;9.646;2022-11-15T02:59:18;100265.91;;;7.35;100.00
8160;BME280;27404;52.398;9.646;2022-11-15T03:02:04;100267.31;;;7.19;100.00
8160;BME280;27404;52.398;9.646;2022-11-15T03:04:37;100272.84;;;7.06;100.00
8160;BME280;27404;52.398;9.646;2022-11-15T03:07:10;100273.13;;;6.97;100.00
8160;BME280;27404;52.398;9.646;2022-11-15T03:12:46;100268.06;;;7.01;100.00
8160;BME280;27404;52.398;9.646;2022-11-15T03:15:22;100260.22;;;6.93;100.00
8160;BME280;27404;52.398;9.646;2022-11-15T03:17:56;100263.81;;;6.87;100.00
8160;BME280;27404;52.398;9.646;2022-11-15T03:20:25;100253.72;;;6.94;100.00
8160;BME280;27404;52.398;9.646;2022-11-15T03:22:53;100255.16;;;6.96;100.00
8160;BME280;27404;52.398;9.646;2022-11-15T03:25:22;100261.22;;;6.99;100.00
8160;BME280;27404;52.398;9.646;2022-11-15T03:27:52;100250.44;;;7.10;100.00
8160;BME280;27404;52.398;9.646;2022-11-15T03:30:18;100252.38;;;7.29;100.00
8160;BME280;27404;52.398;9.646;2022-11-15T03:32:47;100255.69;;;7.31;100.00
8160;BME280;27404;52.398;9.646;2022-11-15T03:35:18;100254.31;;;7.47;100.00
8160;BME280;27404;52.398;9.646;2022-11-15T03:40:58;100260.88;;;7.58;100.00
8160;BME280;27404;52.398;9.646;2022-11-15T03:43:33;100264.81;;;7.62;100.00
8160;BME280;27404;52.398;9.646;2022-11-15T03:46:34;100262.16;;;7.74;100.00
8160;BME280;27404;52.398;9.646;2022-11-15T03:49:14;100266.19;;;7.90;100.00
8160;BME280;27404;52.398;9.646;2022-11-15T03:51:42;100265.25;;;7.96;100.00
8160;BME280;27404;52.398;9.646;2022-11-15T03:54:07;100264.44;;;8.14;100.00
8160;BME280;27404;52.398;9.646;2022-11-15T03:56:33;100267.34;;;8.31;100.00
8160;BME280;27404;52.398;9.646;2022-11-15T03:58:58;100270.59;;;8.40;100.00
8160;BME280;27404;52.398;9.646;2022-11-15T04:01:24;100263.72;;;8.37;100.00
8160;BME280;27404;52.398;9.646;2022-11-15T04:03:49;100264.31;;;8.39;100.00
8160;BME280;27404;52.398;9.646;2022-11-15T04:06:14;100262.41;;;8.40;100.00
8160;BME280;27404;52.398;9.646;2022-11-15T04:08:40;100256.81;;;8.35;100.00
8160;BME280;27404;52.398;9.646;2022-11-15T04:11:06;100253.75;;;8.31;100.00
8160;BME280;27404;52.398;9.646;2022-11-15T04:13:31;100246.38;;;8.32;100.00
8160;BME280;27404;52.398;9.646;2022-11-15T04:15:56;100246.38;;;8.32;100.00
8160;BME280;27404;52.398;9.646;2022-11-15T04:18:22;100255.88;;;8.29;100.00
8160;BME280;27404;52.398;9.646;2022-11-15T04:20:47;100245.56;;;8.31;100.00
8160;BME280;27404;52.398;9.646;2022-11-15T04:23:31;100237.84;;;8.28;100.00
8160;BME280;27404;52.398;9.646;2022-11-15T04:26:21;100234.09;;;8.10;100.00
8160;BME280;27404;52.398;9.646;2022-11-15T04:28:47;100249.47;;;8.05;100.00
8160;BME280;27404;52.398;9.646;2022-11-15T04:31:31;100247.88;;;7.97;100.00
8160;BME280;27404;52.398;9.646;2022-11-15T04:33:57;100252.41;;;8.03;100.00
8160;BME280;27404;52.398;9.646;2022-11-15T04:36:23;100247.22;;;8.02;100.00
8160;BME280;27404;52.398;9.646;2022-11-15T04:39:07;100254.91;;;8.05;100.00
8160;BME280;27404;52.398;9.646;2022-11-15T04:41:35;100247.09;;;8.08;100.00
8160;BME280;27404;52.398;9.646;2022-11-15T04:44:00;100249.63;;;8.10;100.00
8160;BME280;27404;52.398;9.646;2022-11-15T04:46:26;100245.97;;;8.16;100.00
8160;BME280;27404;52.398;9.646;2022-11-15T04:48:53;100251.75;;;8.08;100.00
8160;BME280;27404;52.398;9.646;2022-11-15T04:51:19;100255.88;;;8.10;100.00
8160;BME280;27404;52.398;9.646;2022-11-15T04:53:44;100251.88;;;8.13;100.00
8160;BME280;27404;52.398;9.646;2022-11-15T04:56:10;100251.19;;;8.18;100.00
8160;BME280;27404;52.398;9.646;2022-11-15T04:58:35;100257.22;;;8.20;100.00
8160;BME280;27404;52.398;9.646;2022-11-15T05:01:09;100258.94;;;8.33;100.00
8160;BME280;27404;52.398;9.646;2022-11-15T05:03:35;100259.19;;;8.31;100.00
8160;BME280;27404;52.398;9.646;2022-11-15T05:06:19;100254.84;;;8.42;100.00
8160;BME280;27404;52.398;9.646;2022-11-15T05:08:44;100263.31;;;8.52;100.00
8160;BME280;27404;52.398;9.646;2022-11-15T05:11:09;100260.75;;;8.69;100.00
8160;BME280;27404;52.398;9.646;2022-11-15T05:13:35;100265.28;;;8.76;100.00
8160;BME280;27404;52.398;9.646;2022-11-15T05:16:00;100263.50;;;8.69;100.00
8160;BME280;27404;52.398;9.646;2022-11-15T05:18:26;100270.59;;;8.70;100.00
8160;BME280;27404;52.398;9.646;2022-11-15T05:20:51;100271.66;;;8.69;100.00
8160;BME280;27404;52.398;9.646;2022-11-15T05:23:17;100262.06;;;8.67;100.00
8160;BME280;27404;52.398;9.646;2022-11-15T05:25:42;100262.88;;;8.67;100.00
8160;BME280;27404;52.398;9.646;2022-11-15T05:28:08;100266.47;;;8.68;100.00
8160;BME280;27404;52.398;9.646;2022-11-15T05:30:33;100269.19;;;8.68;100.00
8160;BME280;27404;52.398;9.646;2022-11-15T05:32:59;100269.31;;;8.73;100.00
8160;BME280;27404;52.398;9.646;2022-11-15T05:35:50;100268.59;;;8.66;100.00
8160;BME280;27404;52.398;9.646;2022-11-15T05:38:19;100259.22;;;8.62;100.00
8160;BME280;27404;52.398;9.646;2022-11-15T05:40:45;100270.91;;;8.50;100.00
8160;BME280;27404;52.398;9.646;2022-11-15T05:43:10;100266.44;;;8.37;100.00
8160;BME280;27404;52.398;9.646;2022-11-15T05:45:36;100270.09;;;8.31;100.00
8160;BME280;27404;52.398;9.646;2022-11-15T05:48:05;100268.28;;;8.25;100.00
8160;BME280;27404;52.398;9.646;2022-11-15T05:50:32;100271.44;;;8.22;100.00
8160;BME280;27404;52.398;9.646;2022-11-15T05:52:58;100268.72;;;8.22;100.00
8160;BME280;27404;52.398;9.646;2022-11-15T05:55:24;100272.59;;;8.14;100.00
8160;BME280;27404;52.398;9.646;2022-11-15T05:57:50;100264.97;;;8.04;100.00
8160;BME280;27404;52.398;9.646;2022-11-15T06:00:16;100271.31;;;7.98;100.00
8160;BME280;27404;52.398;9.646;2022-11-15T06:02:41;100263.22;;;7.91;100.00
8160;BME280;27404;52.398;9.646;2022-11-15T06:05:07;100267.97;;;7.96;100.00
8160;BME280;27404;52.398;9.646;2022-11-15T06:07:33;100265.50;;;7.94;100.00
8160;BME280;27404;52.398;9.646;2022-11-15T06:09:58;100267.00;;;7.90;100.00
8160;BME280;27404;52.398;9.646;2022-11-15T06:12:24;100262.78;;;7.94;100.00
8160;BME280;27404;52.398;9.646;2022-11-15T06:14:49;100266.09;;;7.96;100.00
8160;BME280;27404;52.398;9.646;2022-11-15T06:17:15;100273.66;;;7.94;100.00
8160;BME280;27404;52.398;9.646;2022-11-15T06:19:40;100272.84;;;7.94;100.00
8160;BME280;27404;52.398;9.646;2022-11-15T06:22:05;100279.72;;;7.96;100.00
8160;BME280;27404;52.398;9.646;2022-11-15T06:24:31;100274.44;;;8.02;100.00
8160;BME280;27404;52.398;9.646;2022-11-15T06:26:57;100275.56;;;7.94;100.00
8160;BME280;27404;52.398;9.646;2022-11-15T06:29:22;100269.97;;;7.89;100.00
8160;BME280;27404;52.398;9.646;2022-11-15T06:31:48;100263.38;;;7.78;100.00
8160;BME280;27404;52.398;9.646;2022-11-15T06:34:13;100270.16;;;7.68;100.00
8160;BME280;27404;52.398;9.646;2022-11-15T06:36:39;100275.94;;;7.60;100.00
8160;BME280;27404;52.398;9.646;2022-11-15T06:39:04;100275.97;;;7.53;100.00
8160;BME280;27404;52.398;9.646;2022-11-15T06:41:33;100277.72;;;7.48;100.00
8160;BME280;27404;52.398;9.646;2022-11-15T06:43:58;100271.22;;;7.49;100.00
8160;BME280;27404;52.398;9.646;2022-11-15T06:46:24;100276.50;;;7.44;100.00
8160;BME280;27404;52.398;9.646;2022-11-15T06:48:53;100278.00;;;7.39;100.00
8160;BME280;27404;52.398;9.646;2022-11-15T06:51:19;100277.59;;;7.36;100.00
8160;BME280;27404;52.398;9.646;2022-11-15T06:53:44;100278.28;;;7.31;100.00
8160;BME280;27404;52.398;9.646;2022-11-15T06:56:10;100274.06;;;7.35;100.00
8160;BME280;27404;52.398;9.646;2022-11-15T06:58:36;100280.78;;;7.33;100.00
8160;BME280;27404;52.398;9.646;2022-11-15T07:01:04;100279.50;;;7.35;100.00
8160;BME280;27404;52.398;9.646;2022-11-15T07:03:30;100284.34;;;7.33;100.00
8160;BME280;27404;52.398;9.646;2022-11-15T07:05:57;100283.03;;;7.36;100.00
8160;BME280;27404;52.398;9.646;2022-11-15T07:08:23;100293.28;;;7.40;100.00
8160;BME280;27404;52.398;9.646;2022-11-15T07:10:51;100298.72;;;7.40;100.00
8160;BME280;27404;52.398;9.646;2022-11-15T07:13:24;100291.59;;;7.39;100.00
8160;BME280;27404;52.398;9.646;2022-11-15T07:15:49;100291.16;;;7.43;100.00
8160;BME280;27404;52.398;9.646;2022-11-15T07:18:15;100288.00;;;7.46;100.00
8160;BME280;27404;52.398;9.646;2022-11-15T07:20:40;100284.22;;;7.47;100.00
8160;BME280;27404;52.398;9.646;2022-11-15T07:23:06;100291.25;;;7.54;100.00
8160;BME280;27404;52.398;9.646;2022-11-15T07:25:31;100299.94;;;7.63;100.00
8160;BME280;27404;52.398;9.646;2022-11-15T07:27:58;100298.59;;;7.73;100.00
8160;BME280;27404;52.398;9.646;2022-11-15T07:30:24;100299.75;;;7.83;100.00
8160;BME280;27404;52.398;9.646;2022-11-15T07:33:08;100296.50;;;7.93;100.00
8160;BME280;27404;52.398;9.646;2022-11-15T07:35:34;100300.19;;;7.99;100.00
8160;BME280;27404;52.398;9.646;2022-11-15T07:38:00;100296.56;;;8.05;100.00
8160;BME280;27404;52.398;9.646;2022-11-15T07:40:28;100303.69;;;8.06;100.00
8160;BME280;27404;52.398;9.646;2022-11-15T07:43:05;100299.44;;;8.10;100.00
8160;BME280;27404;52.398;9.646;2022-11-15T07:45:31;100297.13;;;8.14;100.00
8160;BME280;27404;52.398;9.646;2022-11-15T07:47:59;100296.25;;;8.13;100.00
8160;BME280;27404;52.398;9.646;2022-11-15T07:50:25;100301.50;;;8.15;100.00
8160;BME280;27404;52.398;9.646;2022-11-15T07:52:58;100293.69;;;8.19;100.00
8160;BME280;27404;52.398;9.646;2022-11-15T07:55:26;100293.69;;;8.19;100.00
8160;BME280;27404;52.398;9.646;2022-11-15T07:57:52;100295.59;;;8.18;100.00
8160;BME280;27404;52.398;9.646;2022-11-15T08:00:18;100287.19;;;8.20;100.00
8160;BME280;27404;52.398;9.646;2022-11-15T08:02:44;100294.16;;;8.15;100.00
8160;BME280;27404;52.398;9.646;2022-11-15T08:05:10;100288.94;;;8.14;100.00
8160;BME280;27404;52.398;9.646;2022-11-15T08:07:35;100290.38;;;8.17;100.00
8160;BME280;27404;52.398;9.646;2022-11-15T08:10:01;100297.31;;;8.31;100.00
8160;BME280;27404;52.398;9.646;2022-11-15T08:12:29;100296.00;;;8.52;100.00
8160;BME280;27404;52.398;9.646;2022-11-15T08:14:55;100301.09;;;8.79;100.00
8160;BME280;27404;52.398;9.646;2022-11-15T08:17:23;100306.41;;;9.16;100.00
8160;BME280;27404;52.398;9.646;2022-11-15T08:19:49;100305.25;;;9.36;100.00
8160;BME280;27404;52.398;9.646;2022-11-15T08:22:14;100301.22;;;9.62;100.00
8160;BME280;27404;52.398;9.646;2022-11-15T08:24:40;100306.31;;;9.83;100.00
8160;BME280;27404;52.398;9.646;2022-11-15T08:27:06;100303.19;;;10.03;100.00
8160;BME280;27404;52.398;9.646;2022-11-15T08:29:43;100305.78;;;10.10;100.00
8160;BME280;27404;52.398;9.646;2022-11-15T08:32:10;100299.81;;;10.25;100.00
8160;BME280;27404;52.398;9.646;2022-11-15T08:34:36;100302.75;;;10.47;100.00
8160;BME280;27404;52.398;9.646;2022-11-15T08:37:02;100300.81;;;10.76;100.00
8160;BME280;27404;52.398;9.646;2022-11-15T08:39:27;100303.44;;;11.00;100.00
8160;BME280;27404;52.398;9.646;2022-11-15T08:41:53;100301.88;;;11.21;100.00
8160;BME280;27404;52.398;9.646;2022-11-15T08:44:18;100296.97;;;11.40;100.00
8160;BME280;27404;52.398;9.646;2022-11-15T08:46:47;100305.25;;;11.63;100.00
8160;BME280;27404;52.398;9.646;2022-11-15T08:49:13;100286.66;;;11.65;100.00
8160;BME280;27404;52.398;9.646;2022-11-15T08:51:38;100296.34;;;11.50;100.00
8160;BME280;27404;52.398;9.646;2022-11-15T08:54:04;100302.28;;;11.30;100.00
8160;BME280;27404;52.398;9.646;2022-11-15T08:56:30;100297.31;;;11.10;100.00
8160;BME280;27404;52.398;9.646;2022-11-15T08:58:55;100295.56;;;11.04;100.00
8160;BME280;27404;52.398;9.646;2022-11-15T09:01:21;100293.59;;;10.99;100.00
8160;BME280;27404;52.398;9.646;2022-11-15T09:03:46;100291.66;;;11.00;100.00
8160;BME280;27404;52.398;9.646;2022-11-15T09:06:12;100296.53;;;10.98;100.00
8160;BME280;27404;52.398;9.646;2022-11-15T09:08:37;100285.13;;;11.01;100.00
8160;BME280;27404;52.398;9.646;2022-11-15T09:11:08;100281.56;;;11.00;100.00
8160;BME280;27404;52.398;9.646;2022-11-15T09:13:35;100292.25;;;11.02;100.00
8160;BME280;27404;52.398;9.646;2022-11-15T09:16:04;100287.63;;;11.02;100.00
8160;BME280;27404;52.398;9.646;2022-11-15T09:18:30;100299.16;;;11.04;100.00
8160;BME280;27404;52.398;9.646;2022-11-15T09:20:57;100291.03;;;11.09;100.00
8160;BME280;27404;52.398;9.646;2022-11-15T09:23:24;100285.16;;;11.18;100.00
8160;BME280;27404;52.398;9.646;2022-11-15T09:25:50;100286.53;;;11.20;100.00
8160;BME280;27404;52.398;9.646;2022-11-15T09:28:16;100280.06;;;11.26;100.00
8160;BME280;27404;52.398;9.646;2022-11-15T09:30:41;100273.03;;;11.31;100.00
8160;BME280;27404;52.398;9.646;2022-11-15T09:33:11;100271.69;;;11.33;100.00
8160;BME280;27404;52.398;9.646;2022-11-15T09:35:37;100273.13;;;11.36;100.00
8160;BME280;27404;52.398;9.646;2022-11-15T09:38:03;100276.16;;;11.39;100.00
8160;BME280;27404;52.398;9.646;2022-11-15T09:40:31;100276.44;;;11.38;100.00
8160;BME280;27404;52.398;9.646;2022-11-15T09:43:09;100285.28;;;11.28;100.00
8160;BME280;27404;52.398;9.646;2022-11-15T09:51:04;100287.69;;;11.41;100.00
8160;BME280;27404;52.398;9.646;2022-11-15T09:53:36;100281.72;;;11.45;100.00
8160;BME280;27404;52.398;9.646;2022-11-15T09:56:20;100283.84;;;11.60;100.00
8160;BME280;27404;52.398;9.646;2022-11-15T09:58:56;100288.91;;;11.68;100.00
8160;BME280;27404;52.398;9.646;2022-11-15T10:04:16;100287.34;;;12.11;100.00
8160;BME280;27404;52.398;9.646;2022-11-15T10:06:52;100284.72;;;12.22;100.00
8160;BME280;27404;52.398;9.646;2022-11-15T10:09:27;100280.94;;;12.28;100.00
8160;BME280;27404;52.398;9.646;2022-11-15T10:11:54;100283.69;;;12.28;100.00
8160;BME280;27404;52.398;9.646;2022-11-15T10:14:22;100282.22;;;12.42;100.00
8160;BME280;27404;52.398;9.646;2022-11-15T10:19:50;100280.50;;;12.64;100.00
8160;BME280;27404;52.398;9.646;2022-11-15T10:23:04;100273.25;;;12.74;100.00
8160;BME280;27404;52.398;9.646;2022-11-15T10:25:28;100281.00;;;12.83;100.00
8160;BME280;27404;52.398;9.646;2022-11-15T10:27:59;100269.13;;;12.77;100.00
8160;BME280;27404;52.398;9.646;2022-11-15T10:35:42;100270.09;;;12.93;100.00
8160;BME280;27404;52.398;9.646;2022-11-15T10:38:11;100275.28;;;12.89;100.00
8160;BME280;27404;52.398;9.646;2022-11-15T10:40:39;100272.38;;;13.01;100.00
8160;BME280;27404;52.398;9.646;2022-11-15T10:43:17;100259.13;;;12.93;100.00
8160;BME280;27404;52.398;9.646;2022-11-15T10:45:43;100259.22;;;13.03;100.00
8160;BME280;27404;52.398;9.646;2022-11-15T10:50:38;100240.81;;;12.99;100.00
8160;BME280;27404;52.398;9.646;2022-11-15T10:53:16;100242.66;;;12.88;100.00
8160;BME280;27404;52.398;9.646;2022-11-15T10:55:47;100244.31;;;12.94;100.00
8160;BME280;27404;52.398;9.646;2022-11-15T11:01:10;100247.09;;;12.99;100.00
8160;BME280;27404;52.398;9.646;2022-11-15T11:03:38;100242.47;;;13.00;100.00
8160;BME280;27404;52.398;9.646;2022-11-15T11:06:22;100238.00;;;12.94;100.00
8160;BME280;27404;52.398;9.646;2022-11-15T11:09:05;100234.88;;;12.80;100.00
8160;BME280;27404;52.398;9.646;2022-11-15T11:11:48;100223.53;;;12.71;100.00
8160;BME280;27404;52.398;9.646;2022-11-15T11:14:35;100226.56;;;12.69;100.00
8160;BME280;27404;52.398;9.646;2022-11-15T11:30:20;100200.06;;;12.53;100.00
8160;BME280;27404;52.398;9.646;2022-11-15T11:35:34;100205.09;;;12.61;100.00
8160;BME280;27404;52.398;9.646;2022-11-15T11:40:44;100195.06;;;12.77;100.00
8160;BME280;27404;52.398;9.646;2022-11-15T11:49:08;100190.34;;;12.67;100.00
8160;BME280;27404;52.398;9.646;2022-11-15T11:51:39;100193.38;;;12.71;100.00
8160;BME280;27404;52.398;9.646;2022-11-15T11:54:14;100192.09;;;12.79;100.00
8160;BME280;27404;52.398;9.646;2022-11-15T11:56:44;100190.38;;;12.72;100.00
8160;BME280;27404;52.398;9.646;2022-11-15T11:59:25;100188.97;;;12.70;100.00
8160;BME280;27404;52.398;9.646;2022-11-15T12:01:54;100186.00;;;12.71;100.00
8160;BME280;27404;52.398;9.646;2022-11-15T12:07:24;100174.38;;;12.59;100.00
8160;BME280;27404;52.398;9.646;2022-11-15T12:09:59;100176.31;;;12.64;100.00
8160;BME280;27404;52.398;9.646;2022-11-15T12:12:58;100172.41;;;12.54;100.00
8160;BME280;27404;52.398;9.646;2022-11-15T12:15:37;100171.84;;;12.52;100.00
8160;BME280;27404;52.398;9.646;2022-11-15T12:18:04;100163.66;;;12.57;100.00
8160;BME280;27404;52.398;9.646;2022-11-15T12:20:40;100160.94;;;12.63;100.00
8160;BME280;27404;52.398;9.646;2022-11-15T12:23:28;100169.72;;;12.65;100.00
8160;BME280;27404;52.398;9.646;2022-11-15T12:26:03;100163.44;;;12.64;100.00
8160;BME280;27404;52.398;9.646;2022-11-15T12:28:48;100171.16;;;12.67;100.00
8160;BME280;27404;52.398;9.646;2022-11-15T12:31:21;100167.88;;;12.70;100.00
8160;BME280;27404;52.398;9.646;2022-11-15T12:33:49;100170.66;;;12.76;100.00
8160;BME280;27404;52.398;9.646;2022-11-15T12:38:58;100166.31;;;12.80;100.00
8160;BME280;27404;52.398;9.646;2022-11-15T12:41:39;100148.78;;;12.81;100.00
8160;BME280;27404;52.398;9.646;2022-11-15T12:44:10;100146.84;;;12.81;100.00
8160;BME280;27404;52.398;9.646;2022-11-15T13:02:37;100115.81;;;13.18;100.00
8160;BME280;27404;52.398;9.646;2022-11-15T13:17:51;100106.69;;;13.08;100.00
8160;BME280;27404;52.398;9.646;2022-11-15T13:23:10;100100.34;;;13.02;100.00
8160;BME280;27404;52.398;9.646;2022-11-15T13:25:52;100092.66;;;12.99;100.00
8160;BME280;27404;52.398;9.646;2022-11-15T13:30:59;100089.91;;;12.99;100.00
8160;BME280;27404;52.398;9.646;2022-11-15T13:33:30;100086.84;;;12.95;100.00
8160;BME280;27404;52.398;9.646;2022-11-15T13:35:58;100092.84;;;12.87;100.00
8160;BME280;27404;52.398;9.646;2022-11-15T13:38:25;100087.34;;;12.82;100.00
8160;BME280;27404;52.398;9.646;2022-11-15T13:40:56;100079.34;;;12.80;100.00
8160;BME280;27404;52.398;9.646;2022-11-15T13:46:29;100062.53;;;12.66;100.00
8160;BME280;27404;52.398;9.646;2022-11-15T13:49:01;100062.00;;;12.69;100.00
8160;BME280;27404;52.398;9.646;2022-11-15T13:51:51;100060.94;;;12.70;100.00
8160;BME280;27404;52.398;9.646;2022-11-15T13:54:37;100060.41;;;12.73;100.00
8160;BME280;27404;52.398;9.646;2022-11-15T13:57:12;100061.19;;;12.69;100.00
8160;BME280;27404;52.398;9.646;2022-11-15T13:59:52;100053.72;;;12.59;100.00
8160;BME280;27404;52.398;9.646;2022-11-15T14:02:25;100061.13;;;12.58;100.00
8160;BME280;27404;52.398;9.646;2022-11-15T14:04:53;100056.69;;;12.52;100.00
8160;BME280;27404;52.398;9.646;2022-11-15T14:07:23;100053.34;;;12.45;100.00
8160;BME280;27404;52.398;9.646;2022-11-15T14:09:49;100058.72;;;12.29;100.00
8160;BME280;27404;52.398;9.646;2022-11-15T14:12:33;100052.75;;;12.38;100.00
8160;BME280;27404;52.398;9.646;2022-11-15T14:15:02;100048.00;;;12.28;100.00
8160;BME280;27404;52.398;9.646;2022-11-15T14:17:43;100054.53;;;12.22;100.00
8160;BME280;27404;52.398;9.646;2022-11-15T14:23:01;100052.09;;;11.98;100.00
8160;BME280;27404;52.398;9.646;2022-11-15T14:25:53;100049.59;;;11.91;100.00
8160;BME280;27404;52.398;9.646;2022-11-15T14:30:48;100042.81;;;11.72;100.00
8160;BME280;27404;52.398;9.646;2022-11-15T14:33:39;100046.25;;;11.62;100.00
8160;BME280;27404;52.398;9.646;2022-11-15T14:36:19;100045.38;;;11.56;100.00
8160;BME280;27404;52.398;9.646;2022-11-15T14:38:45;100035.69;;;11.70;100.00
8160;BME280;27404;52.398;9.646;2022-11-15T14:41:24;100042.47;;;11.68;100.00
8160;BME280;27404;52.398;9.646;2022-11-15T14:43:50;100029.31;;;11.65;100.00
8160;BME280;27404;52.398;9.646;2022-11-15T14:46:17;100034.19;;;11.58;100.00
8160;BME280;27404;52.398;9.646;2022-11-15T14:48:43;100029.47;;;11.53;100.00
8160;BME280;27404;52.398;9.646;2022-11-15T14:51:12;100026.50;;;11.32;100.00
8160;BME280;27404;52.398;9.646;2022-11-15T14:53:38;100029.38;;;11.20;100.00
8160;BME280;27404;52.398;9.646;2022-11-15T14:56:03;100023.31;;;11.18;100.00
8160;BME280;27404;52.398;9.646;2022-11-15T14:58:29;100020.78;;;11.11;100.00
8160;BME280;27404;52.398;9.646;2022-11-15T15:00:55;100021.31;;;11.08;100.00